Norient Star — 9HRV9 — position and weather

sailwx.info

Track history (hours):
 
Tides and Currents Weather Stations Pressure Air Temp Water Temp Dewpoint Dewpoint Depression Visibility Wind Speed Wind Dir Waves Ship Positions

Norient Star

Last reported at 2016-Feb-12 07:20 UTC. Time now 2016-Feb-12 12:12 UTC.
Position N 01°16' E 103°46'.

Length 180 m; draft 7.4 m.

Type: Tanker. MMSI: 249434000.

Date/timePositionNaut miles runAvg speedWind from/ knotsBaromVisibWave heightAir tempDewpointWater temp
2016-Feb-12 07:20N 01°16' E 103°46'  
2016-Feb-07 02:32N 01°13' E 103°48'8 0.3
2016-Feb-06 00:31N 01°16' E 103°41'2 1.8
2016-Feb-05 23:33N 01°14' E 103°42'4 1.6
2016-Feb-05 21:18N 01°11' E 103°43'0 0.0
2016-Feb-05 20:20N 01°11' E 103°43'0 0.0
2016-Feb-05 17:14N 01°11' E 103°43'0 0.1
2016-Feb-05 16:20N 01°11' E 103°43'0 0.0
2016-Feb-05 09:29N 01°11' E 103°43'0 0.0
2016-Feb-04 18:26N 01°11' E 103°43'3 3.7
2016-Feb-04 17:32N 01°10' E 103°46'13 0.5
2016-Feb-03 12:33N 01°16' E 103°57'  
Track history (hours):
 
Tides and Currents Weather Stations Pressure Air Temp Water Temp Dewpoint Dewpoint Depression Visibility Wind Speed Wind Dir Waves Ship Positions

Norient Star

Last reported at 2016-Feb-12 07:20 UTC. Time now 2016-Feb-12 12:12 UTC.
Position N 01°16' E 103°46'.

Length 180 m; draft 7.4 m.

Type: Tanker. MMSI: 249434000.

Date/timePositionNaut miles runAvg speedWind from/ knotsBaromVisibWave heightAir tempDewpointWater temp
2016-Feb-12 07:20N 01°16' E 103°46'  
2016-Feb-07 02:32N 01°13' E 103°48'8 0.3
2016-Feb-06 00:31N 01°16' E 103°41'2 1.8
2016-Feb-05 23:33N 01°14' E 103°42'4 1.6
2016-Feb-05 21:18N 01°11' E 103°43'0 0.0
2016-Feb-05 20:20N 01°11' E 103°43'0 0.0
2016-Feb-05 17:14N 01°11' E 103°43'0 0.1
2016-Feb-05 16:20N 01°11' E 103°43'0 0.0
2016-Feb-05 09:29N 01°11' E 103°43'0 0.0
2016-Feb-04 18:26N 01°11' E 103°43'3 3.7
2016-Feb-04 17:32N 01°10' E 103°46'13 0.5
2016-Feb-03 12:33N 01°16' E 103°57'  

Dump ship's entire track history